Time;durP1;ratioP1;P1;durP2;ratioP2;P2;SDS_P1;SDS_P2;PMS_P1;PMS_P2;Temp;Humidity;BMP_temperature;BMP_pressure;BME280_temperature;BME280_humidity;BME280_pressure;Samples;Min_cycle;Max_cycle;Signal;HPM_P1;HPM_P2
2021/11/18 00:00:53;;;;;;;6.43;4.38;;;;;;;9.66;58.16;99808.06;5093618;28;20043;-53
2021/11/18 00:03:19;;;;;;;15.40;5.35;;;;;;;9.58;58.21;99808.88;5093551;28;20024;-53
2021/11/18 00:05:45;;;;;;;11.00;6.75;;;;;;;9.56;58.18;99810.03;5093417;28;20020;-52
2021/11/18 00:08:11;;;;;;;7.05;5.07;;;;;;;9.43;58.21;99810.53;5093406;28;20125;-53
2021/11/18 00:10:39;;;;;;;1917.13;901.53;;;;;;;9.35;58.99;99794.81;5093350;28;20476;-52
2021/11/18 00:13:07;;;;;;;339.85;224.77;;;;;;;9.43;58.87;99802.66;5093310;28;20039;-53
2021/11/18 00:15:34;;;;;;;75.25;53.70;;;;;;;9.47;58.75;99809.22;5093182;28;20016;-53
2021/11/18 00:18:13;;;;;;;62.17;45.60;;;;;;;9.55;58.62;99801.34;5093225;28;20382;-52
2021/11/18 00:20:46;;;;;;;297.98;238.88;;;;;;;9.54;58.89;99804.16;5093150;28;20035;-52
2021/11/18 00:23:12;;;;;;;55.22;41.58;;;;;;;9.63;58.66;99808.38;5093206;28;20423;-52
2021/11/18 00:25:38;;;;;;;15.57;9.90;;;;;;;9.62;58.36;99809.38;5093031;28;20016;-52
2021/11/18 00:28:04;;;;;;;10.10;7.38;;;;;;;9.71;58.96;99803.13;5092812;28;20064;-52
2021/11/18 00:30:30;;;;;;;7.68;6.07;;;;;;;9.85;58.18;99808.69;5092966;28;20046;-52
2021/11/18 00:32:57;;;;;;;9.30;5.13;;;;;;;9.77;58.23;99805.06;5091558;28;20020;-52
2021/11/18 00:35:26;;;;;;;8.48;5.50;;;;;;;9.60;58.14;99800.88;5092874;28;20031;-52
2021/11/18 00:37:53;;;;;;;12.55;6.80;;;;;;;9.40;58.56;99805.63;5092932;28;20513;-52
2021/11/18 00:40:24;;;;;;;11.15;5.90;;;;;;;9.44;59.06;99813.97;5091483;28;20024;-52
2021/11/18 00:42:51;;;;;;;7.72;4.75;;;;;;;9.46;58.59;99806.78;5092841;28;20515;-52
2021/11/18 00:45:20;;;;;;;7.82;4.88;;;;;;;9.35;58.74;99807.91;5092679;28;20027;-52
2021/11/18 00:47:51;;;;;;;15.20;5.28;;;;;;;9.20;58.60;99808.56;5092619;28;20031;-53
2021/11/18 00:50:20;;;;;;;11.65;4.90;;;;;;;9.13;59.48;99797.09;5091308;28;20056;-53
2021/11/18 00:52:46;;;;;;;12.23;5.60;;;;;;;9.13;59.77;99802.34;5092614;28;20020;-52
2021/11/18 00:55:12;;;;;;;7.40;4.63;;;;;;;9.47;59.09;99795.31;5091187;28;20030;-53
2021/11/18 00:57:38;;;;;;;5.78;4.47;;;;;;;9.49;59.06;99801.19;5091159;28;20406;-52
2021/11/18 01:00:10;;;;;;;7.35;5.35;;;;;;;9.42;59.20;99792.34;5092484;28;20419;-52
2021/11/18 01:02:36;;;;;;;8.63;5.07;;;;;;;9.40;59.20;99795.16;5092416;28;20095;-52
2021/11/18 01:05:02;;;;;;;10.38;4.93;;;;;;;9.52;59.56;99801.69;5092335;28;20118;-53
2021/11/18 01:07:28;;;;;;;9.32;6.07;;;;;;;9.51;59.02;99796.59;5092362;28;20061;-52
2021/11/18 01:09:54;;;;;;;8.75;5.32;;;;;;;9.44;59.17;99795.63;5090876;28;20488;-53
2021/11/18 01:12:19;;;;;;;7.38;4.68;;;;;;;9.45;59.48;99799.88;5090927;28;20459;-53
2021/11/18 01:14:46;;;;;;;9.30;5.22;;;;;;;9.58;59.49;99801.03;5092541;28;20028;-52
2021/11/18 01:17:12;;;;;;;14.65;6.75;;;;;;;9.65;59.14;99798.53;5091568;28;20103;-52
2021/11/18 01:19:38;;;;;;;13.95;11.23;;;;;;;9.57;59.10;99799.38;5092201;28;20098;-53
2021/11/18 01:22:06;;;;;;;66.60;59.50;;;;;;;9.49;59.23;99794.16;5090899;28;20024;-53
2021/11/18 01:24:34;;;;;;;58.63;52.50;;;;;;;9.44;59.60;99793.84;5092105;28;20099;-52
2021/11/18 01:26:59;;;;;;;33.42;26.70;;;;;;;9.44;59.53;99801.69;5091891;28;20089;-53
2021/11/18 01:29:26;;;;;;;46.88;42.20;;;;;;;9.51;60.09;99801.84;5091957;28;20424;-53
2021/11/18 01:34:17;;;;;;;144.65;130.68;;;;;;;10.25;59.04;99791.97;5091958;28;20062;-53
2021/11/18 01:36:43;;;;;;;25.92;22.92;;;;;;;10.29;57.26;99800.34;5092029;28;20456;-53
2021/11/18 01:39:09;;;;;;;94.85;85.05;;;;;;;10.06;58.61;99790.59;5091961;28;20035;-53
2021/11/18 01:41:37;;;;;;;13.60;8.75;;;;;;;10.26;58.18;99788.38;5090550;28;20097;-53
2021/11/18 01:44:10;;;;;;;14.18;11.02;;;;;;;10.23;57.91;99790.53;5090583;28;20020;-53
2021/11/18 01:46:37;;;;;;;17.27;15.55;;;;;;;10.24;57.98;99800.84;5091853;28;20078;-53
2021/11/18 01:49:06;;;;;;;19.33;7.43;;;;;;;10.35;58.19;99803.09;5090463;28;20524;-53
2021/11/18 01:51:36;;;;;;;10.38;5.60;;;;;;;10.61;57.44;99795.94;5091764;28;20030;-53
2021/11/18 01:54:03;;;;;;;8.10;5.90;;;;;;;10.70;57.14;99797.50;5091840;28;20028;-53
2021/11/18 01:56:32;;;;;;;13.48;7.70;;;;;;;10.71;57.15;99794.72;5090415;28;20028;-52
2021/11/18 01:59:06;;;;;;;14.18;8.57;;;;;;;10.58;56.82;99794.47;5090417;28;20028;-53
2021/11/18 02:01:32;;;;;;;25.60;13.75;;;;;;;10.34;57.20;99800.66;5090421;28;20082;-53
2021/11/18 02:03:57;;;;;;;17.63;9.13;;;;;;;10.25;57.65;99799.03;5091701;28;20489;-53
2021/11/18 02:06:31;;;;;;;47.17;19.73;;;;;;;10.23;57.90;99790.53;5091681;28;20059;-53
2021/11/18 02:08:57;;;;;;;37.83;21.10;;;;;;;10.28;57.75;99791.66;5091596;28;20031;-53
2021/11/18 02:11:29;;;;;;;20.70;10.25;;;;;;;10.24;57.49;99792.97;5091641;28;20016;-53
2021/11/18 02:13:55;;;;;;;12.85;7.20;;;;;;;10.12;57.61;99795.16;5090305;28;20020;-53
2021/11/18 02:16:23;;;;;;;62.78;36.60;;;;;;;9.89;58.04;99792.44;5090224;28;20028;-53
2021/11/18 02:18:49;;;;;;;85.03;76.30;;;;;;;9.84;58.46;99786.88;5091511;28;20493;-53
2021/11/18 02:21:15;;;;;;;37.88;31.35;;;;;;;9.90;58.58;99785.38;5091501;28;20031;-53
2021/11/18 02:23:45;;;;;;;60.80;46.85;;;;;;;9.92;58.32;99784.25;5090108;28;20089;-53
2021/11/18 02:26:11;;;;;;;39.22;23.08;;;;;;;9.99;58.50;99782.56;5090157;28;20043;-52
2021/11/18 02:28:41;;;;;;;68.95;61.67;;;;;;;10.15;58.37;99783.50;5093751;28;20024;-53
2021/11/18 02:31:22;;;;;;;21.08;12.27;;;;;;;10.30;57.91;99778.38;5095306;28;20039;-53
2021/11/18 02:33:49;;;;;;;18.17;7.78;;;;;;;10.40;57.87;99771.09;5095207;28;20106;-53
2021/11/18 02:36:15;;;;;;;11.88;6.75;;;;;;;10.59;57.57;99765.41;5093864;28;20024;-53
2021/11/18 02:38:42;;;;;;;11.60;6.18;;;;;;;10.86;56.74;99768.50;5095178;28;20052;-53
2021/11/18 02:41:10;;;;;;;16.75;10.90;;;;;;;10.99;56.03;99760.88;5095063;28;20027;-52
2021/11/18 02:43:36;;;;;;;11.73;6.80;;;;;;;10.99;55.79;99768.75;5095331;28;20054;-53
2021/11/18 02:46:03;;;;;;;137.60;123.43;;;;;;;10.56;55.76;99771.03;5093651;28;20028;-53
2021/11/18 02:48:29;;;;;;;16.00;8.80;;;;;;;9.90;56.87;99767.84;5094900;28;20020;-53
2021/11/18 02:50:58;;;;;;;12.60;7.38;;;;;;;9.34;58.33;99764.38;5093535;28;20034;-52
2021/11/18 02:53:25;;;;;;;10.38;6.50;;;;;;;9.12;59.69;99769.28;5094865;28;20574;-52
2021/11/18 02:55:52;;;;;;;9.32;6.53;;;;;;;9.18;59.52;99779.13;5093483;28;20031;-52
2021/11/18 02:58:20;;;;;;;23.70;19.02;;;;;;;9.31;59.55;99777.78;5094842;28;20040;-52
2021/11/18 03:01:09;;;;;;;10.57;6.50;;;;;;;9.47;59.35;99788.25;5094716;28;20103;-52
2021/11/18 03:03:35;;;;;;;40.72;36.25;;;;;;;9.59;59.18;99780.88;5093422;28;20028;-52
2021/11/18 03:06:01;;;;;;;14.70;8.90;;;;;;;9.64;58.86;99770.72;5094545;28;20070;-52
2021/11/18 03:08:28;;;;;;;15.73;7.53;;;;;;;9.66;58.88;99779.22;5094493;28;20089;-52
2021/11/18 03:10:55;;;;;;;12.48;7.50;;;;;;;9.68;58.84;99781.66;5094608;28;20410;-52
2021/11/18 03:13:23;;;;;;;19.67;12.25;;;;;;;9.65;59.08;99774.97;5094537;28;20017;-53
2021/11/18 03:15:49;;;;;;;8.02;6.38;;;;;;;9.64;58.81;99773.34;5094425;28;20489;-53
2021/11/18 03:18:15;;;;;;;28.25;22.10;;;;;;;9.61;58.99;99773.66;5093037;28;20047;-53
2021/11/18 03:20:42;;;;;;;19.60;13.23;;;;;;;9.56;59.40;99763.69;5094386;28;20482;-53
2021/11/18 03:23:09;;;;;;;13.32;6.45;;;;;;;9.65;58.91;99764.47;5094300;28;20020;-53
2021/11/18 03:25:37;;;;;;;8.63;5.55;;;;;;;9.58;59.02;99772.19;5094269;28;20431;-53
2021/11/18 03:28:04;;;;;;;9.35;5.38;;;;;;;9.46;59.06;99780.59;5093932;28;20460;-53
2021/11/18 03:30:33;;;;;;;7.85;5.50;;;;;;;9.27;59.66;99772.06;5094178;28;20036;-53
2021/11/18 03:33:07;;;;;;;7.78;5.63;;;;;;;9.18;60.21;99773.88;5094171;28;20385;-53
2021/11/18 03:35:33;;;;;;;13.48;6.32;;;;;;;9.21;60.38;99780.56;5094131;28;20028;-53
2021/11/18 03:38:00;;;;;;;9.20;5.78;;;;;;;9.32;60.43;99776.81;5092746;28;20031;-53
2021/11/18 03:40:27;;;;;;;11.15;6.20;;;;;;;9.38;59.50;99779.59;5093395;28;20031;-53
2021/11/18 03:42:55;;;;;;;11.55;5.80;;;;;;;9.23;59.82;99772.56;5093983;28;20501;-53
2021/11/18 03:45:23;;;;;;;10.55;6.75;;;;;;;9.11;60.31;99764.22;5093846;28;20497;-53
2021/11/18 03:47:49;;;;;;;17.60;6.97;;;;;;;9.12;60.56;99778.97;5093810;28;20024;-52
2021/11/18 03:50:15;;;;;;;21.10;6.30;;;;;;;9.03;60.67;99780.75;5093790;28;20028;-52
2021/11/18 03:52:41;;;;;;;14.32;6.22;;;;;;;9.02;61.05;99778.31;5093822;28;20363;-52
2021/11/18 03:55:10;;;;;;;11.00;6.40;;;;;;;8.95;61.28;99789.44;5092295;28;20528;-52
2021/11/18 03:57:36;;;;;;;10.90;6.32;;;;;;;9.03;61.34;99783.34;5092316;28;20397;-53
2021/11/18 04:00:09;;;;;;;16.48;6.75;;;;;;;9.20;60.89;99781.56;5093620;28;20505;-53
2021/11/18 04:02:36;;;;;;;8.02;5.47;;;;;;;9.19;60.67;99780.75;5092306;28;20512;-53
2021/11/18 04:05:02;;;;;;;16.33;8.35;;;;;;;9.06;60.76;99788.28;5093444;28;20024;-53
2021/11/18 04:07:33;;;;;;;14.25;6.28;;;;;;;8.95;61.52;99794.66;5093504;28;20428;-53
2021/11/18 04:09:59;;;;;;;11.98;6.55;;;;;;;8.90;61.52;99789.09;5093376;28;20028;-53
2021/11/18 04:12:25;;;;;;;22.33;10.10;;;;;;;8.71;61.27;99792.84;5093316;28;20016;-53
2021/11/18 04:14:50;;;;;;;13.73;6.97;;;;;;;8.48;61.94;99799.63;5093587;28;20024;-52
2021/11/18 04:17:16;;;;;;;14.43;7.28;;;;;;;8.40;62.90;99792.53;5093188;28;20089;-52
2021/11/18 04:19:42;;;;;;;9.05;5.95;;;;;;;8.39;62.47;99801.34;5093269;28;20563;-52
2021/11/18 04:22:08;;;;;;;14.02;6.35;;;;;;;8.30;62.57;99795.28;5093181;28;20031;-53
2021/11/18 04:24:35;;;;;;;17.13;6.90;;;;;;;8.23;62.71;99794.28;5091875;28;20078;-53
2021/11/18 04:27:02;;;;;;;15.68;6.95;;;;;;;8.05;63.13;99790.91;5092879;28;20063;-53
2021/11/18 04:29:28;;;;;;;13.05;6.88;;;;;;;7.98;63.82;99785.50;5091568;28;20016;-52
2021/11/18 04:31:58;;;;;;;12.38;7.20;;;;;;;7.97;63.69;99803.00;5091605;28;20115;-52
2021/11/18 04:34:24;;;;;;;14.52;7.47;;;;;;;7.89;63.49;99807.38;5092919;28;20115;-53
2021/11/18 04:36:50;;;;;;;29.00;8.48;;;;;;;7.87;63.80;99812.75;5091567;28;20379;-52
2021/11/18 04:39:16;;;;;;;17.33;6.40;;;;;;;7.88;63.95;99816.16;5092905;28;20080;-53
2021/11/18 04:41:41;;;;;;;22.40;7.47;;;;;;;7.89;63.88;99821.25;5091393;28;20024;-52
2021/11/18 04:44:07;;;;;;;41.65;20.95;;;;;;;7.82;63.73;99819.41;5092725;28;20106;-52
2021/11/18 04:46:33;;;;;;;23.95;7.38;;;;;;;7.77;63.89;99828.53;5092710;28;20110;-53
2021/11/18 04:48:59;;;;;;;21.83;7.68;;;;;;;7.85;64.27;99825.16;5092626;28;20103;-52
2021/11/18 04:51:26;;;;;;;17.63;6.85;;;;;;;7.94;64.07;99816.38;5091657;28;20028;-52
2021/11/18 04:53:53;;;;;;;17.30;6.93;;;;;;;7.90;63.93;99812.41;5092611;28;20020;-53
2021/11/18 04:56:18;;;;;;;15.27;6.68;;;;;;;7.95;64.48;99822.44;5092472;28;20081;-52
2021/11/18 04:58:44;;;;;;;21.48;8.00;;;;;;;7.95;63.91;99820.63;5092504;28;20448;-53
2021/11/18 05:01:13;;;;;;;16.85;8.15;;;;;;;8.00;64.13;99817.53;5092466;28;20480;-52
2021/11/18 05:03:40;;;;;;;15.65;7.50;;;;;;;8.02;64.06;99828.66;5092448;28;20017;-53
2021/11/18 05:06:07;;;;;;;11.82;7.18;;;;;;;7.87;63.69;99832.81;5092320;28;20112;-52
2021/11/18 05:08:33;;;;;;;11.88;7.50;;;;;;;7.62;64.46;99830.06;5092253;28;20035;-52
2021/11/18 05:10:59;;;;;;;11.55;6.78;;;;;;;7.52;65.18;99829.31;5092274;28;20073;-53
2021/11/18 05:13:28;;;;;;;12.65;6.95;;;;;;;7.47;65.52;99831.59;5092253;28;20030;-53
2021/11/18 05:15:56;;;;;;;11.68;6.93;;;;;;;7.40;65.45;99840.03;5092224;28;20024;-53
2021/11/18 05:18:22;;;;;;;15.25;8.05;;;;;;;7.34;65.72;99831.97;5092079;28;20028;-53
2021/11/18 05:20:48;;;;;;;15.25;8.50;;;;;;;7.39;66.33;99843.59;5092186;28;20035;-52
2021/11/18 05:23:15;;;;;;;11.60;7.32;;;;;;;7.67;66.47;99837.44;5092098;28;20016;-53
2021/11/18 05:25:41;;;;;;;15.13;6.78;;;;;;;7.97;65.07;99833.56;5092071;28;20405;-53
2021/11/18 05:28:07;;;;;;;12.70;7.28;;;;;;;8.16;64.71;99845.56;5091835;28;20174;-53
2021/11/18 05:30:35;;;;;;;26.40;7.55;;;;;;;8.39;64.57;99841.44;5092049;28;20042;-53
2021/11/18 05:33:10;;;;;;;11.98;6.93;;;;;;;8.68;63.90;99845.47;5092046;28;20016;-53
2021/11/18 05:35:36;;;;;;;13.23;6.68;;;;;;;8.85;63.34;99848.94;5090661;28;20161;-53
2021/11/18 05:38:03;;;;;;;12.98;7.00;;;;;;;8.93;63.02;99851.59;5090657;28;20610;-52
2021/11/18 05:40:30;;;;;;;11.05;7.18;;;;;;;8.96;63.04;99851.28;5091889;28;20016;-53
2021/11/18 05:42:56;;;;;;;18.90;9.05;;;;;;;8.97;62.37;99852.94;5091872;28;20020;-53
2021/11/18 05:45:26;;;;;;;15.48;8.15;;;;;;;9.00;62.41;99849.16;5091880;28;20047;-52
2021/11/18 05:47:52;;;;;;;13.20;8.30;;;;;;;9.10;62.18;99851.63;5091804;28;20074;-53
2021/11/18 05:50:19;;;;;;;23.55;8.15;;;;;;;9.18;62.36;99851.63;5091821;28;20017;-53
2021/11/18 05:52:45;;;;;;;18.02;8.02;;;;;;;9.31;61.66;99857.19;5091827;28;20051;-52
2021/11/18 05:55:14;;;;;;;20.73;8.00;;;;;;;9.35;61.72;99858.50;5091766;28;20038;-53
2021/11/18 05:57:40;;;;;;;10.60;7.05;;;;;;;9.38;61.34;99860.00;5091735;28;20028;-53
2021/11/18 06:00:08;;;;;;;13.13;8.18;;;;;;;9.39;61.09;99856.38;5090444;28;20032;-53
2021/11/18 06:02:34;;;;;;;15.40;8.45;;;;;;;9.39;61.49;99861.63;5092389;28;20103;-53
2021/11/18 06:04:59;;;;;;;13.20;7.65;;;;;;;9.38;61.33;99854.75;5095812;28;20103;-52
2021/11/18 06:07:26;;;;;;;13.77;8.50;;;;;;;9.32;61.14;99865.91;5095861;28;20489;-53
2021/11/18 06:09:53;;;;;;;13.45;8.73;;;;;;;9.34;61.30;99872.59;5095708;28;20043;-53
2021/11/18 06:12:19;;;;;;;14.40;7.60;;;;;;;9.39;61.19;99865.06;5095783;28;20103;-53
2021/11/18 06:14:45;;;;;;;15.80;8.63;;;;;;;9.50;61.08;99869.16;5095722;28;20450;-53
2021/11/18 06:17:10;;;;;;;13.48;8.25;;;;;;;9.52;60.75;99871.63;5095682;28;20422;-52
2021/11/18 06:19:36;;;;;;;16.80;9.07;;;;;;;9.23;60.95;99878.16;5095607;28;20101;-53
2021/11/18 06:22:03;;;;;;;13.27;9.38;;;;;;;9.13;61.65;99880.09;5094216;28;20023;-53
2021/11/18 06:24:30;;;;;;;15.30;8.90;;;;;;;9.19;61.09;99888.16;5095498;28;20020;-53
2021/11/18 06:26:57;;;;;;;13.45;9.35;;;;;;;9.21;61.32;99882.72;5095213;28;20048;-53
2021/11/18 06:29:23;;;;;;;15.25;7.80;;;;;;;9.26;61.13;99888.31;5095314;28;20019;-53
2021/11/18 06:31:51;;;;;;;16.95;8.98;;;;;;;9.38;61.27;99894.06;5095295;28;20057;-53
2021/11/18 06:34:17;;;;;;;15.27;8.10;;;;;;;9.44;61.08;99898.66;5095251;28;20024;-52
2021/11/18 06:36:44;;;;;;;16.73;9.57;;;;;;;9.45;60.76;99910.75;5095254;28;20059;-53
2021/11/18 06:39:12;;;;;;;17.92;9.65;;;;;;;9.49;60.68;99909.44;5095214;28;20028;-53
2021/11/18 06:41:38;;;;;;;23.00;9.35;;;;;;;9.49;60.70;99914.69;5095146;28;20024;-53
2021/11/18 06:44:04;;;;;;;18.50;8.88;;;;;;;9.45;60.77;99920.41;5095092;28;20115;-53
2021/11/18 06:46:33;;;;;;;13.65;8.20;;;;;;;9.46;60.64;99924.69;5095062;28;20062;-53
2021/11/18 06:48:59;;;;;;;14.63;9.05;;;;;;;9.39;60.64;99924.50;5094922;28;20016;-53
2021/11/18 06:51:26;;;;;;;19.70;9.98;;;;;;;9.36;59.93;99930.09;5094923;28;20031;-53
2021/11/18 06:53:55;;;;;;;15.98;9.10;;;;;;;8.74;61.08;99940.88;5094917;28;20074;-53
2021/11/18 06:56:22;;;;;;;13.75;9.52;;;;;;;8.62;61.78;99957.81;5094804;28;20028;-52
2021/11/18 06:58:48;;;;;;;14.38;9.40;;;;;;;8.61;62.53;99956.97;5094839;28;20028;-52
2021/11/18 07:01:15;;;;;;;11.15;7.90;;;;;;;8.66;62.13;99952.13;5094702;28;20069;-52
2021/11/18 07:03:41;;;;;;;13.27;9.43;;;;;;;8.68;62.12;99955.41;5094732;28;20012;-52
2021/11/18 07:06:09;;;;;;;13.18;9.60;;;;;;;8.68;62.38;99951.97;5094633;28;20031;-53
2021/11/18 07:08:36;;;;;;;13.60;10.02;;;;;;;8.43;62.21;99953.63;5093234;28;20451;-53
2021/11/18 07:11:02;;;;;;;13.15;10.23;;;;;;;8.20;63.44;99965.38;5094578;28;20024;-52
2021/11/18 07:13:32;;;;;;;20.30;10.25;;;;;;;8.07;64.28;99964.13;5094487;28;20024;-53
2021/11/18 07:16:00;;;;;;;15.38;8.75;;;;;;;8.41;63.82;99966.88;5093542;28;20066;-53
2021/11/18 07:18:27;;;;;;;16.35;9.43;;;;;;;8.75;63.66;99972.13;5094518;28;20059;-53
2021/11/18 07:20:54;;;;;;;13.07;9.05;;;;;;;8.97;62.63;99962.03;5094382;28;20136;-53
2021/11/18 07:23:21;;;;;;;19.83;9.20;;;;;;;9.18;62.07;99969.50;5093045;28;20366;-53
2021/11/18 07:25:50;;;;;;;17.55;10.35;;;;;;;9.34;61.72;99972.16;5093039;28;20058;-53
2021/11/18 07:28:17;;;;;;;17.92;9.70;;;;;;;9.37;61.47;99971.00;5093973;28;20103;-53
2021/11/18 07:30:43;;;;;;;17.10;9.68;;;;;;;9.19;60.70;99976.34;5092869;28;20020;-53
2021/11/18 07:33:10;;;;;;;16.98;9.30;;;;;;;9.17;62.45;99978.31;5094104;28;20028;-53
2021/11/18 07:35:36;;;;;;;16.55;8.98;;;;;;;9.74;61.25;99980.25;5094164;28;20020;-53
2021/11/18 07:38:02;;;;;;;14.65;7.95;;;;;;;10.19;60.11;99977.09;5094086;28;20558;-54
2021/11/18 07:40:29;;;;;;;13.52;9.25;;;;;;;10.50;59.31;99984.31;5093996;28;20012;-53
2021/11/18 07:42:56;;;;;;;13.60;9.50;;;;;;;10.49;58.40;99987.09;5093984;28;20046;-53
2021/11/18 07:45:24;;;;;;;19.92;11.63;;;;;;;10.28;58.91;99984.97;5093929;28;20028;-53
2021/11/18 07:47:50;;;;;;;19.20;9.30;;;;;;;10.35;59.20;99978.91;5093909;28;20021;-53
2021/11/18 07:50:17;;;;;;;10.23;8.93;;;;;;;10.53;58.81;99977.91;5092338;28;20047;-53
2021/11/18 07:52:44;;;;;;;13.63;8.65;;;;;;;10.73;58.41;99980.97;5093804;28;20397;-52
2021/11/18 07:55:12;;;;;;;16.35;9.60;;;;;;;10.50;57.64;99992.19;5093673;28;20028;-53
2021/11/18 07:57:38;;;;;;;18.25;10.43;;;;;;;10.47;58.24;99989.09;5092414;28;20031;-53
2021/11/18 08:00:07;;;;;;;17.58;11.60;;;;;;;10.33;57.91;99991.38;5093598;28;20492;-53
2021/11/18 08:02:33;;;;;;;21.30;9.88;;;;;;;10.18;58.38;99991.22;5093578;28;20107;-52
2021/11/18 08:04:59;;;;;;;13.40;9.30;;;;;;;10.08;58.75;100001.06;5093549;28;20045;-52
2021/11/18 08:07:25;;;;;;;17.67;9.50;;;;;;;10.04;58.68;99998.91;5093745;28;20032;-52
2021/11/18 08:09:52;;;;;;;13.65;9.73;;;;;;;9.92;58.75;100001.88;5092013;28;20027;-52
2021/11/18 08:12:20;;;;;;;16.33;9.95;;;;;;;9.93;58.99;100002.69;5093353;28;20020;-52
2021/11/18 08:14:45;;;;;;;24.33;10.73;;;;;;;9.96;59.07;100005.81;5093365;28;20020;-52
2021/11/18 08:17:11;;;;;;;20.73;10.35;;;;;;;9.83;59.09;100010.72;5093241;28;20016;-53
2021/11/18 08:19:37;;;;;;;24.95;10.40;;;;;;;9.92;59.70;100008.91;5093235;28;20569;-53
2021/11/18 08:22:04;;;;;;;12.23;8.77;;;;;;;9.96;58.69;100013.69;5093557;28;20575;-52
2021/11/18 08:24:31;;;;;;;13.27;10.30;;;;;;;9.80;59.20;100014.50;5093126;28;20390;-52
2021/11/18 08:26:58;;;;;;;16.38;9.80;;;;;;;9.63;59.43;100018.06;5092710;28;20059;-52
2021/11/18 08:29:27;;;;;;;13.80;9.93;;;;;;;9.46;59.69;100021.66;5092907;28;20032;-52
2021/11/18 08:31:54;;;;;;;13.32;10.73;;;;;;;9.44;60.25;100020.97;5093023;28;20081;-52
2021/11/18 08:34:22;;;;;;;11.73;9.32;;;;;;;9.48;60.61;100009.22;5092870;28;20127;-53
2021/11/18 08:36:50;;;;;;;10.68;8.07;;;;;;;9.56;60.19;100024.94;5092857;28;20027;-52
2021/11/18 08:39:19;;;;;;;16.85;9.38;;;;;;;9.66;59.72;100030.84;5092880;28;20063;-52
2021/11/18 08:41:51;;;;;;;12.73;8.85;;;;;;;9.75;59.42;100037.75;5092834;28;20016;-52
2021/11/18 08:44:17;;;;;;;450.60;390.40;;;;;;;9.83;59.55;100033.50;5092836;28;20039;-52
2021/11/18 08:46:45;;;;;;;53.85;45.13;;;;;;;9.98;58.94;100032.69;5091386;28;20107;-53
2021/11/18 08:49:11;;;;;;;22.08;18.10;;;;;;;9.86;58.86;100041.03;5091298;28;20024;-53
2021/11/18 08:51:37;;;;;;;31.55;19.85;;;;;;;9.80;59.12;100035.47;5092639;28;20081;-52
2021/11/18 08:54:09;;;;;;;33.55;25.27;;;;;;;9.95;59.39;100032.19;5091286;28;20034;-53
2021/11/18 08:56:36;;;;;;;23.75;16.23;;;;;;;10.25;59.21;100027.28;5092609;28;20024;-53
2021/11/18 08:59:04;;;;;;;17.67;10.30;;;;;;;10.64;58.62;100029.22;5092566;28;20490;-53
2021/11/18 09:01:40;;;;;;;18.48;11.07;;;;;;;10.96;57.96;100025.69;5092547;28;20504;-53
2021/11/18 09:04:22;;;;;;;16.60;10.30;;;;;;;11.25;56.92;100032.97;5092496;28;20055;-53
2021/11/18 09:06:49;;;;;;;14.95;9.63;;;;;;;11.45;56.54;100040.41;5092687;28;20024;-53
2021/11/18 09:09:18;;;;;;;15.73;9.30;;;;;;;11.49;55.90;100036.47;5092279;28;20032;-53
2021/11/18 09:11:45;;;;;;;16.02;10.77;;;;;;;11.47;55.76;100044.53;5092253;28;20024;-53
2021/11/18 09:14:12;;;;;;;14.05;11.18;;;;;;;11.46;55.82;100044.72;5092241;28;20024;-53
2021/11/18 09:16:40;;;;;;;15.55;11.02;;;;;;;11.46;55.62;100050.78;5092213;28;20032;-53
2021/11/18 09:19:10;;;;;;;13.90;10.15;;;;;;;11.20;55.41;100053.69;5092207;28;20427;-53
2021/11/18 09:21:37;;;;;;;18.92;10.75;;;;;;;11.04;56.50;100061.63;5092135;28;20040;-53
2021/11/18 09:24:10;;;;;;;13.95;9.85;;;;;;;11.23;56.32;100061.25;5092136;28;20611;-53
2021/11/18 09:26:38;;;;;;;16.08;9.30;;;;;;;11.44;55.66;100065.09;5090636;28;20493;-53
2021/11/18 09:29:05;;;;;;;11.88;9.23;;;;;;;11.42;55.25;100067.06;5092080;28;20561;-51
2021/11/18 09:31:32;;;;;;;15.23;10.93;;;;;;;11.25;55.49;100069.78;5092029;28;20039;-53
2021/11/18 09:34:00;;;;;;;15.88;11.02;;;;;;;11.36;55.82;100064.13;5092549;28;20106;-53
2021/11/18 09:36:27;;;;;;;16.17;9.55;;;;;;;11.68;55.31;100059.69;5091953;28;20020;-53
2021/11/18 09:38:55;;;;;;;16.40;9.35;;;;;;;11.90;54.60;100055.47;5091421;28;20028;-53
2021/11/18 09:41:27;;;;;;;33.63;24.65;;;;;;;12.13;54.07;100054.66;5091960;28;20013;-53
2021/11/18 09:44:20;;;;;;;16.08;11.20;;;;;;;12.22;53.34;100050.97;5091999;28;20089;-52
2021/11/18 09:47:00;;;;;;;20.02;9.95;;;;;;;12.13;53.71;100046.75;5091866;28;20024;-53
2021/11/18 09:49:49;;;;;;;18.65;9.00;;;;;;;12.23;53.03;100041.25;5091809;28;20028;-53
2021/11/18 09:52:52;;;;;;;12.30;8.90;;;;;;;12.51;53.19;100044.94;5091715;28;20031;-53
2021/11/18 09:55:28;;;;;;;11.48;9.07;;;;;;;12.63;52.79;100045.31;5090449;28;20543;-53
2021/11/18 09:58:13;;;;;;;13.55;8.43;;;;;;;12.79;52.01;100044.34;5091851;28;20024;-53
2021/11/18 10:01:06;;;;;;;11.98;8.90;;;;;;;12.83;51.62;100042.97;5090397;28;20490;-53
2021/11/18 10:04:01;;;;;;;10.95;8.52;;;;;;;13.02;51.20;100046.06;5091811;28;20020;-53
2021/11/18 10:06:34;;;;;;;10.05;9.00;;;;;;;12.97;50.34;100047.41;5091680;28;20028;-53
2021/11/18 10:09:37;;;;;;;17.60;8.73;;;;;;;12.84;50.90;100043.78;5091632;28;20051;-53
2021/11/18 10:12:28;;;;;;;24.48;9.43;;;;;;;12.85;50.51;100051.50;5083015;28;20068;-52
2021/11/18 10:15:03;;;;;;;22.63;9.15;;;;;;;12.65;51.00;100056.50;5091660;28;20401;-53
2021/11/18 10:17:34;;;;;;;11.75;8.80;;;;;;;12.46;51.41;100049.94;5091652;28;20478;-53
2021/11/18 10:20:02;;;;;;;14.13;8.25;;;;;;;12.34;51.86;100051.38;5091648;28;20031;-52
2021/11/18 10:22:31;;;;;;;11.43;8.27;;;;;;;12.45;51.85;100058.00;5091517;28;20486;-53
2021/11/18 10:24:58;;;;;;;12.93;8.52;;;;;;;12.66;51.88;100057.34;5091515;28;20034;-53
2021/11/18 10:27:59;;;;;;;10.75;7.93;;;;;;;13.09;51.55;100052.25;5089874;28;20440;-53
2021/11/18 10:30:34;;;;;;;13.45;8.60;;;;;;;13.47;50.31;100039.75;5069703;28;20080;-53
2021/11/18 10:33:11;;;;;;;15.65;8.35;;;;;;;14.15;49.59;100036.78;5090085;28;20150;-53
2021/11/18 10:36:00;;;;;;;9.48;7.90;;;;;;;14.96;47.17;100034.50;5091403;28;20025;-51
2021/11/18 10:38:37;;;;;;;13.57;7.55;;;;;;;14.87;47.47;100032.22;5090113;28;20413;-51
2021/11/18 10:41:16;;;;;;;13.32;8.18;;;;;;;14.80;46.53;100029.56;5091459;28;20495;-51
2021/11/18 10:44:00;;;;;;;12.75;8.10;;;;;;;14.49;46.78;100022.84;5090080;28;20027;-51
2021/11/18 10:46:33;;;;;;;11.43;7.97;;;;;;;14.17;47.41;100024.22;5091306;28;20173;-51
2021/11/18 10:49:11;;;;;;;9.98;8.10;;;;;;;14.08;47.90;100022.69;5092562;28;20020;-51
2021/11/18 10:51:55;;;;;;;17.60;9.02;;;;;;;14.01;47.67;100030.56;5093688;28;20490;-51
2021/11/18 10:54:39;;;;;;;18.33;9.40;;;;;;;14.17;47.73;100025.03;5095084;28;20024;-51
2021/11/18 10:57:09;;;;;;;12.93;8.63;;;;;;;14.80;46.93;100024.25;5095042;28;20058;-50
2021/11/18 10:59:42;;;;;;;13.48;8.68;;;;;;;15.61;45.75;100017.47;5093586;28;20032;-50
2021/11/18 11:02:37;;;;;;;17.40;8.43;;;;;;;16.64;44.56;100011.78;5094902;28;20032;-50
2021/11/18 11:05:27;;;;;;;13.68;9.13;;;;;;;16.96;43.35;99997.69;5080567;28;20028;-50
2021/11/18 11:07:53;;;;;;;9.80;7.25;;;;;;;17.22;42.87;99995.91;5093472;28;20463;-51
2021/11/18 11:10:25;;;;;;;14.18;7.07;;;;;;;17.71;41.37;99998.94;5094638;28;20099;-51
2021/11/18 11:12:50;;;;;;;12.00;7.45;;;;;;;18.30;40.62;99995.00;5094748;28;20085;-51
2021/11/18 11:16:04;;;;;;;9.70;7.55;;;;;;;19.18;39.92;99985.06;5094550;28;20016;-51
2021/11/18 11:18:43;;;;;;;11.13;7.50;;;;;;;20.03;37.55;99989.38;5094393;28;20070;-52
2021/11/18 11:21:22;;;;;;;13.30;8.02;;;;;;;19.93;37.02;99979.28;5094528;28;20020;-51
2021/11/18 11:23:54;;;;;;;10.55;7.78;;;;;;;20.18;36.75;99967.59;5093094;28;20124;-52
2021/11/18 11:26:50;;;;;;;12.13;7.72;;;;;;;20.30;36.10;99973.75;5092808;28;20024;-51
2021/11/18 11:29:38;;;;;;;12.05;7.30;;;;;;;20.49;35.76;99969.09;5094272;28;20103;-51
2021/11/18 11:32:28;;;;;;;8.05;7.07;;;;;;;20.87;35.67;99967.78;5084529;28;20031;-49
2021/11/18 11:35:06;;;;;;;7.43;6.70;;;;;;;20.89;35.21;99963.00;5094212;28;20024;-49
2021/11/18 11:37:58;;;;;;;9.88;7.43;;;;;;;21.17;35.15;99952.56;5094128;28;20028;-49
2021/11/18 11:40:27;;;;;;;10.07;6.97;;;;;;;21.14;33.97;99952.00;5094117;28;20486;-49